sensor_id;sensor_type;location;lat;lon;timestamp;P1;durP1;ratioP1;P2;durP2;ratioP2
13331;SDS011;6735;51.456;12.626;2022-10-31T00:00:28;11.47;;;9.40;;
13331;SDS011;6735;51.456;12.626;2022-10-31T00:02:54;11.13;;;9.43;;
13331;SDS011;6735;51.456;12.626;2022-10-31T00:05:20;16.93;;;10.60;;
13331;SDS011;6735;51.456;12.626;2022-10-31T00:07:45;14.53;;;9.40;;
13331;SDS011;6735;51.456;12.626;2022-10-31T00:10:11;13.90;;;9.30;;
13331;SDS011;6735;51.456;12.626;2022-10-31T00:12:36;12.93;;;9.83;;
13331;SDS011;6735;51.456;12.626;2022-10-31T00:15:02;13.70;;;9.30;;
13331;SDS011;6735;51.456;12.626;2022-10-31T00:17:28;13.37;;;9.50;;
13331;SDS011;6735;51.456;12.626;2022-10-31T00:19:53;13.73;;;9.47;;
13331;SDS011;6735;51.456;12.626;2022-10-31T00:22:19;16.70;;;9.93;;
13331;SDS011;6735;51.456;12.626;2022-10-31T00:24:44;11.73;;;9.60;;
13331;SDS011;6735;51.456;12.626;2022-10-31T00:27:10;12.20;;;9.83;;
13331;SDS011;6735;51.456;12.626;2022-10-31T00:29:35;11.53;;;9.37;;
13331;SDS011;6735;51.456;12.626;2022-10-31T00:32:01;15.13;;;9.73;;
13331;SDS011;6735;51.456;12.626;2022-10-31T00:34:26;13.17;;;9.67;;
13331;SDS011;6735;51.456;12.626;2022-10-31T00:36:52;13.67;;;9.70;;
13331;SDS011;6735;51.456;12.626;2022-10-31T00:39:17;15.57;;;9.77;;
13331;SDS011;6735;51.456;12.626;2022-10-31T00:41:43;12.43;;;9.57;;
13331;SDS011;6735;51.456;12.626;2022-10-31T00:44:08;11.87;;;9.23;;
13331;SDS011;6735;51.456;12.626;2022-10-31T00:46:34;15.47;;;9.77;;
13331;SDS011;6735;51.456;12.626;2022-10-31T00:48:59;14.63;;;9.77;;
13331;SDS011;6735;51.456;12.626;2022-10-31T00:51:25;11.07;;;8.87;;
13331;SDS011;6735;51.456;12.626;2022-10-31T00:53:51;12.63;;;9.67;;
13331;SDS011;6735;51.456;12.626;2022-10-31T00:56:16;12.37;;;8.80;;
13331;SDS011;6735;51.456;12.626;2022-10-31T00:58:42;16.13;;;9.47;;
13331;SDS011;6735;51.456;12.626;2022-10-31T01:01:07;13.47;;;9.83;;
13331;SDS011;6735;51.456;12.626;2022-10-31T01:03:33;13.67;;;8.87;;
13331;SDS011;6735;51.456;12.626;2022-10-31T01:08:32;17.90;;;9.77;;
13331;SDS011;6735;51.456;12.626;2022-10-31T01:10:59;13.23;;;8.43;;
13331;SDS011;6735;51.456;12.626;2022-10-31T01:13:26;12.63;;;9.20;;
13331;SDS011;6735;51.456;12.626;2022-10-31T01:15:55;12.77;;;9.03;;
13331;SDS011;6735;51.456;12.626;2022-10-31T01:18:21;10.63;;;8.57;;
13331;SDS011;6735;51.456;12.626;2022-10-31T01:20:47;13.33;;;8.57;;
13331;SDS011;6735;51.456;12.626;2022-10-31T01:23:26;12.77;;;9.23;;
13331;SDS011;6735;51.456;12.626;2022-10-31T01:26:05;10.10;;;8.17;;
13331;SDS011;6735;51.456;12.626;2022-10-31T01:28:32;14.50;;;8.87;;
13331;SDS011;6735;51.456;12.626;2022-10-31T01:31:02;10.70;;;8.23;;
13331;SDS011;6735;51.456;12.626;2022-10-31T01:33:30;11.90;;;8.30;;
13331;SDS011;6735;51.456;12.626;2022-10-31T01:35:56;13.33;;;8.30;;
13331;SDS011;6735;51.456;12.626;2022-10-31T01:38:21;15.60;;;9.03;;
13331;SDS011;6735;51.456;12.626;2022-10-31T01:40:48;13.23;;;8.70;;
13331;SDS011;6735;51.456;12.626;2022-10-31T01:43:14;10.97;;;8.30;;
13331;SDS011;6735;51.456;12.626;2022-10-31T01:45:40;11.60;;;8.80;;
13331;SDS011;6735;51.456;12.626;2022-10-31T01:48:11;14.97;;;8.67;;
13331;SDS011;6735;51.456;12.626;2022-10-31T01:50:40;11.40;;;7.97;;
13331;SDS011;6735;51.456;12.626;2022-10-31T01:53:07;10.90;;;8.10;;
13331;SDS011;6735;51.456;12.626;2022-10-31T01:55:35;13.70;;;8.57;;
13331;SDS011;6735;51.456;12.626;2022-10-31T01:58:06;12.93;;;8.73;;
13331;SDS011;6735;51.456;12.626;2022-10-31T02:00:35;11.13;;;8.30;;
13331;SDS011;6735;51.456;12.626;2022-10-31T02:03:01;12.00;;;8.40;;
13331;SDS011;6735;51.456;12.626;2022-10-31T02:05:27;13.40;;;8.70;;
13331;SDS011;6735;51.456;12.626;2022-10-31T02:08:05;12.30;;;8.70;;
13331;SDS011;6735;51.456;12.626;2022-10-31T02:10:38;11.97;;;8.63;;
13331;SDS011;6735;51.456;12.626;2022-10-31T02:13:07;13.43;;;8.40;;
13331;SDS011;6735;51.456;12.626;2022-10-31T02:15:33;10.33;;;8.53;;
13331;SDS011;6735;51.456;12.626;2022-10-31T02:18:01;13.40;;;8.37;;
13331;SDS011;6735;51.456;12.626;2022-10-31T02:20:29;10.27;;;7.70;;
13331;SDS011;6735;51.456;12.626;2022-10-31T02:34:21;13.93;;;7.80;;
13331;SDS011;6735;51.456;12.626;2022-10-31T02:36:52;10.80;;;7.50;;
13331;SDS011;6735;51.456;12.626;2022-10-31T02:45:00;9.23;;;7.60;;
13331;SDS011;6735;51.456;12.626;2022-10-31T02:47:32;12.43;;;7.97;;
13331;SDS011;6735;51.456;12.626;2022-10-31T02:50:06;13.57;;;7.90;;
13331;SDS011;6735;51.456;12.626;2022-10-31T02:52:36;11.97;;;8.40;;
13331;SDS011;6735;51.456;12.626;2022-10-31T02:55:12;12.17;;;8.20;;
13331;SDS011;6735;51.456;12.626;2022-10-31T02:57:47;12.83;;;8.07;;
13331;SDS011;6735;51.456;12.626;2022-10-31T03:00:13;11.20;;;7.63;;
13331;SDS011;6735;51.456;12.626;2022-10-31T03:02:48;11.67;;;7.93;;
13331;SDS011;6735;51.456;12.626;2022-10-31T03:08:03;15.37;;;8.13;;
13331;SDS011;6735;51.456;12.626;2022-10-31T03:10:54;14.70;;;8.40;;
13331;SDS011;6735;51.456;12.626;2022-10-31T03:16:32;11.63;;;8.20;;
13331;SDS011;6735;51.456;12.626;2022-10-31T03:22:07;14.73;;;8.40;;
13331;SDS011;6735;51.456;12.626;2022-10-31T03:24:40;11.83;;;8.47;;
13331;SDS011;6735;51.456;12.626;2022-10-31T03:27:08;13.13;;;8.67;;
13331;SDS011;6735;51.456;12.626;2022-10-31T03:29:36;12.40;;;8.60;;
13331;SDS011;6735;51.456;12.626;2022-10-31T03:32:06;12.60;;;8.93;;
13331;SDS011;6735;51.456;12.626;2022-10-31T03:34:37;13.87;;;9.10;;
13331;SDS011;6735;51.456;12.626;2022-10-31T03:37:06;13.50;;;9.00;;
13331;SDS011;6735;51.456;12.626;2022-10-31T03:39:35;10.67;;;8.63;;
13331;SDS011;6735;51.456;12.626;2022-10-31T03:42:18;13.50;;;8.60;;
13331;SDS011;6735;51.456;12.626;2022-10-31T03:44:59;13.47;;;9.07;;
13331;SDS011;6735;51.456;12.626;2022-10-31T03:47:32;18.00;;;9.20;;
13331;SDS011;6735;51.456;12.626;2022-10-31T03:50:00;11.87;;;9.10;;
13331;SDS011;6735;51.456;12.626;2022-10-31T03:52:31;10.33;;;8.00;;
13331;SDS011;6735;51.456;12.626;2022-10-31T03:55:06;11.23;;;8.60;;
13331;SDS011;6735;51.456;12.626;2022-10-31T04:00:27;12.20;;;8.83;;
13331;SDS011;6735;51.456;12.626;2022-10-31T04:02:58;12.70;;;8.50;;
13331;SDS011;6735;51.456;12.626;2022-10-31T04:05:31;11.90;;;8.87;;
13331;SDS011;6735;51.456;12.626;2022-10-31T04:07:57;12.67;;;9.13;;
13331;SDS011;6735;51.456;12.626;2022-10-31T04:10:25;10.63;;;8.80;;
13331;SDS011;6735;51.456;12.626;2022-10-31T04:12:54;12.00;;;8.57;;
13331;SDS011;6735;51.456;12.626;2022-10-31T04:15:24;10.50;;;8.80;;
13331;SDS011;6735;51.456;12.626;2022-10-31T04:17:52;12.97;;;8.73;;
13331;SDS011;6735;51.456;12.626;2022-10-31T04:20:32;10.80;;;8.53;;
13331;SDS011;6735;51.456;12.626;2022-10-31T04:22:58;10.60;;;8.30;;
13331;SDS011;6735;51.456;12.626;2022-10-31T04:25:25;14.57;;;8.60;;
13331;SDS011;6735;51.456;12.626;2022-10-31T04:27:50;11.57;;;8.77;;
13331;SDS011;6735;51.456;12.626;2022-10-31T04:30:16;12.03;;;8.77;;
13331;SDS011;6735;51.456;12.626;2022-10-31T04:32:41;13.23;;;9.17;;
13331;SDS011;6735;51.456;12.626;2022-10-31T04:35:07;12.20;;;8.80;;
13331;SDS011;6735;51.456;12.626;2022-10-31T04:37:33;11.53;;;8.40;;
13331;SDS011;6735;51.456;12.626;2022-10-31T04:39:58;13.47;;;8.60;;
13331;SDS011;6735;51.456;12.626;2022-10-31T04:42:24;9.87;;;8.87;;
13331;SDS011;6735;51.456;12.626;2022-10-31T04:44:49;9.83;;;8.57;;
13331;SDS011;6735;51.456;12.626;2022-10-31T04:47:15;11.63;;;8.80;;
13331;SDS011;6735;51.456;12.626;2022-10-31T04:49:40;15.60;;;9.95;;
13331;SDS011;6735;51.456;12.626;2022-10-31T04:52:06;15.90;;;9.07;;
13331;SDS011;6735;51.456;12.626;2022-10-31T04:54:33;15.87;;;9.70;;
13331;SDS011;6735;51.456;12.626;2022-10-31T04:56:58;14.87;;;10.00;;
13331;SDS011;6735;51.456;12.626;2022-10-31T04:59:24;13.93;;;10.10;;
13331;SDS011;6735;51.456;12.626;2022-10-31T05:01:49;13.13;;;9.63;;
13331;SDS011;6735;51.456;12.626;2022-10-31T05:04:15;12.60;;;9.27;;
13331;SDS011;6735;51.456;12.626;2022-10-31T05:06:40;9.83;;;8.83;;
13331;SDS011;6735;51.456;12.626;2022-10-31T05:09:06;13.13;;;10.20;;
13331;SDS011;6735;51.456;12.626;2022-10-31T05:11:31;13.27;;;9.50;;
13331;SDS011;6735;51.456;12.626;2022-10-31T05:13:57;15.00;;;9.47;;
13331;SDS011;6735;51.456;12.626;2022-10-31T05:16:22;13.83;;;9.60;;
13331;SDS011;6735;51.456;12.626;2022-10-31T05:18:48;11.43;;;9.37;;
13331;SDS011;6735;51.456;12.626;2022-10-31T05:21:13;11.53;;;9.13;;
13331;SDS011;6735;51.456;12.626;2022-10-31T05:23:39;11.70;;;9.23;;
13331;SDS011;6735;51.456;12.626;2022-10-31T05:26:05;10.37;;;9.13;;
13331;SDS011;6735;51.456;12.626;2022-10-31T05:28:30;13.73;;;9.40;;
13331;SDS011;6735;51.456;12.626;2022-10-31T05:30:56;9.77;;;8.70;;
13331;SDS011;6735;51.456;12.626;2022-10-31T05:33:21;12.00;;;9.17;;
13331;SDS011;6735;51.456;12.626;2022-10-31T05:35:47;14.73;;;9.50;;
13331;SDS011;6735;51.456;12.626;2022-10-31T05:38:13;13.67;;;8.50;;
13331;SDS011;6735;51.456;12.626;2022-10-31T05:40:38;11.67;;;9.50;;
13331;SDS011;6735;51.456;12.626;2022-10-31T05:43:04;12.77;;;9.33;;
13331;SDS011;6735;51.456;12.626;2022-10-31T05:45:29;11.43;;;9.07;;
13331;SDS011;6735;51.456;12.626;2022-10-31T05:47:58;13.30;;;9.63;;
13331;SDS011;6735;51.456;12.626;2022-10-31T05:50:26;10.23;;;8.73;;
13331;SDS011;6735;51.456;12.626;2022-10-31T05:55:22;13.73;;;8.97;;
13331;SDS011;6735;51.456;12.626;2022-10-31T05:57:48;10.33;;;9.20;;
13331;SDS011;6735;51.456;12.626;2022-10-31T06:00:14;10.03;;;9.03;;
13331;SDS011;6735;51.456;12.626;2022-10-31T06:02:39;11.53;;;9.07;;
13331;SDS011;6735;51.456;12.626;2022-10-31T06:05:05;11.77;;;8.90;;
13331;SDS011;6735;51.456;12.626;2022-10-31T06:07:34;15.20;;;9.80;;
13331;SDS011;6735;51.456;12.626;2022-10-31T06:10:00;14.30;;;8.60;;
13331;SDS011;6735;51.456;12.626;2022-10-31T06:12:27;11.10;;;8.00;;
13331;SDS011;6735;51.456;12.626;2022-10-31T06:14:53;11.80;;;9.23;;
13331;SDS011;6735;51.456;12.626;2022-10-31T06:17:19;13.77;;;9.53;;
13331;SDS011;6735;51.456;12.626;2022-10-31T06:19:44;15.50;;;9.90;;
13331;SDS011;6735;51.456;12.626;2022-10-31T06:22:10;11.63;;;9.80;;
13331;SDS011;6735;51.456;12.626;2022-10-31T06:24:38;17.73;;;9.93;;
13331;SDS011;6735;51.456;12.626;2022-10-31T06:27:04;13.83;;;10.50;;
13331;SDS011;6735;51.456;12.626;2022-10-31T06:29:30;16.27;;;10.53;;
13331;SDS011;6735;51.456;12.626;2022-10-31T06:31:56;11.10;;;10.00;;
13331;SDS011;6735;51.456;12.626;2022-10-31T06:34:22;14.03;;;10.17;;
13331;SDS011;6735;51.456;12.626;2022-10-31T06:36:47;17.13;;;10.67;;
13331;SDS011;6735;51.456;12.626;2022-10-31T06:39:13;14.60;;;10.77;;
13331;SDS011;6735;51.456;12.626;2022-10-31T06:41:39;13.87;;;10.50;;
13331;SDS011;6735;51.456;12.626;2022-10-31T06:44:06;14.67;;;10.90;;
13331;SDS011;6735;51.456;12.626;2022-10-31T06:46:32;13.00;;;10.23;;
13331;SDS011;6735;51.456;12.626;2022-10-31T06:48:58;11.73;;;9.30;;
13331;SDS011;6735;51.456;12.626;2022-10-31T06:51:23;13.00;;;10.60;;
13331;SDS011;6735;51.456;12.626;2022-10-31T06:53:49;15.60;;;11.00;;
13331;SDS011;6735;51.456;12.626;2022-10-31T06:56:14;15.00;;;10.03;;
13331;SDS011;6735;51.456;12.626;2022-10-31T06:58:40;14.73;;;10.77;;
13331;SDS011;6735;51.456;12.626;2022-10-31T07:01:05;12.47;;;10.00;;
13331;SDS011;6735;51.456;12.626;2022-10-31T07:03:31;15.83;;;10.13;;
13331;SDS011;6735;51.456;12.626;2022-10-31T07:05:57;12.97;;;10.50;;
13331;SDS011;6735;51.456;12.626;2022-10-31T07:08:23;13.93;;;9.87;;
13331;SDS011;6735;51.456;12.626;2022-10-31T07:10:52;11.23;;;9.83;;
13331;SDS011;6735;51.456;12.626;2022-10-31T07:13:19;11.17;;;9.77;;
13331;SDS011;6735;51.456;12.626;2022-10-31T07:15:51;11.70;;;9.47;;
13331;SDS011;6735;51.456;12.626;2022-10-31T07:18:24;11.93;;;10.07;;
13331;SDS011;6735;51.456;12.626;2022-10-31T07:20:49;10.17;;;9.03;;
13331;SDS011;6735;51.456;12.626;2022-10-31T07:23:16;11.37;;;9.00;;
13331;SDS011;6735;51.456;12.626;2022-10-31T07:25:42;10.03;;;8.00;;
13331;SDS011;6735;51.456;12.626;2022-10-31T07:28:08;13.73;;;8.87;;
13331;SDS011;6735;51.456;12.626;2022-10-31T07:30:34;9.97;;;8.17;;
13331;SDS011;6735;51.456;12.626;2022-10-31T07:33:00;10.90;;;7.93;;
13331;SDS011;6735;51.456;12.626;2022-10-31T07:35:26;11.70;;;7.70;;
13331;SDS011;6735;51.456;12.626;2022-10-31T07:37:53;10.07;;;7.50;;
13331;SDS011;6735;51.456;12.626;2022-10-31T07:40:19;8.93;;;7.23;;
13331;SDS011;6735;51.456;12.626;2022-10-31T07:42:47;10.17;;;7.47;;
13331;SDS011;6735;51.456;12.626;2022-10-31T07:45:18;11.93;;;7.33;;
13331;SDS011;6735;51.456;12.626;2022-10-31T07:47:45;10.30;;;7.60;;
13331;SDS011;6735;51.456;12.626;2022-10-31T07:50:35;8.50;;;7.07;;
13331;SDS011;6735;51.456;12.626;2022-10-31T07:53:01;8.80;;;7.40;;
13331;SDS011;6735;51.456;12.626;2022-10-31T07:55:31;7.97;;;7.10;;
13331;SDS011;6735;51.456;12.626;2022-10-31T07:58:01;11.70;;;7.30;;
13331;SDS011;6735;51.456;12.626;2022-10-31T08:00:32;11.17;;;8.80;;
13331;SDS011;6735;51.456;12.626;2022-10-31T08:03:06;11.47;;;8.37;;
13331;SDS011;6735;51.456;12.626;2022-10-31T08:05:39;14.97;;;10.63;;
13331;SDS011;6735;51.456;12.626;2022-10-31T08:08:10;13.57;;;10.50;;
13331;SDS011;6735;51.456;12.626;2022-10-31T08:10:36;16.73;;;11.63;;
13331;SDS011;6735;51.456;12.626;2022-10-31T08:13:05;18.27;;;11.53;;
13331;SDS011;6735;51.456;12.626;2022-10-31T08:15:32;16.20;;;12.93;;
13331;SDS011;6735;51.456;12.626;2022-10-31T08:18:01;17.70;;;12.30;;
13331;SDS011;6735;51.456;12.626;2022-10-31T08:20:27;21.03;;;14.43;;
13331;SDS011;6735;51.456;12.626;2022-10-31T08:22:56;16.70;;;13.27;;
13331;SDS011;6735;51.456;12.626;2022-10-31T08:25:24;22.87;;;13.57;;
13331;SDS011;6735;51.456;12.626;2022-10-31T08:27:51;18.97;;;13.87;;
13331;SDS011;6735;51.456;12.626;2022-10-31T08:30:18;18.57;;;14.03;;
13331;SDS011;6735;51.456;12.626;2022-10-31T08:32:45;17.50;;;12.90;;
13331;SDS011;6735;51.456;12.626;2022-10-31T08:35:11;17.23;;;12.57;;
13331;SDS011;6735;51.456;12.626;2022-10-31T08:37:36;18.87;;;12.10;;
13331;SDS011;6735;51.456;12.626;2022-10-31T08:40:02;18.90;;;12.77;;
13331;SDS011;6735;51.456;12.626;2022-10-31T08:42:28;15.80;;;13.17;;
13331;SDS011;6735;51.456;12.626;2022-10-31T08:44:53;19.47;;;13.70;;
13331;SDS011;6735;51.456;12.626;2022-10-31T08:47:19;22.87;;;16.00;;
13331;SDS011;6735;51.456;12.626;2022-10-31T08:49:44;24.10;;;16.83;;
13331;SDS011;6735;51.456;12.626;2022-10-31T08:52:10;30.30;;;18.70;;
13331;SDS011;6735;51.456;12.626;2022-10-31T08:54:35;24.23;;;17.30;;
13331;SDS011;6735;51.456;12.626;2022-10-31T08:57:01;26.50;;;18.27;;
13331;SDS011;6735;51.456;12.626;2022-10-31T08:59:26;28.87;;;19.70;;
13331;SDS011;6735;51.456;12.626;2022-10-31T09:01:52;33.93;;;21.47;;
13331;SDS011;6735;51.456;12.626;2022-10-31T09:04:17;32.23;;;21.53;;
13331;SDS011;6735;51.456;12.626;2022-10-31T09:06:43;31.73;;;22.27;;
13331;SDS011;6735;51.456;12.626;2022-10-31T09:09:08;29.77;;;21.53;;
13331;SDS011;6735;51.456;12.626;2022-10-31T09:11:34;33.67;;;22.73;;
13331;SDS011;6735;51.456;12.626;2022-10-31T09:13:59;37.23;;;22.07;;
13331;SDS011;6735;51.456;12.626;2022-10-31T09:16:25;31.33;;;20.93;;
13331;SDS011;6735;51.456;12.626;2022-10-31T09:18:51;28.93;;;22.07;;
13331;SDS011;6735;51.456;12.626;2022-10-31T09:21:16;33.03;;;21.53;;
13331;SDS011;6735;51.456;12.626;2022-10-31T09:23:42;27.57;;;21.27;;
13331;SDS011;6735;51.456;12.626;2022-10-31T09:26:07;31.07;;;21.57;;
13331;SDS011;6735;51.456;12.626;2022-10-31T09:28:33;32.77;;;23.30;;
13331;SDS011;6735;51.456;12.626;2022-10-31T09:30:59;35.90;;;23.27;;
13331;SDS011;6735;51.456;12.626;2022-10-31T09:33:24;34.30;;;23.80;;
13331;SDS011;6735;51.456;12.626;2022-10-31T09:35:50;34.97;;;24.83;;
13331;SDS011;6735;51.456;12.626;2022-10-31T09:38:17;39.20;;;25.77;;
13331;SDS011;6735;51.456;12.626;2022-10-31T09:40:48;39.00;;;24.43;;
13331;SDS011;6735;51.456;12.626;2022-10-31T09:51:51;41.23;;;26.40;;
13331;SDS011;6735;51.456;12.626;2022-10-31T09:54:27;38.13;;;25.20;;
13331;SDS011;6735;51.456;12.626;2022-10-31T09:56:53;40.73;;;27.93;;
13331;SDS011;6735;51.456;12.626;2022-10-31T09:59:33;43.17;;;27.93;;
13331;SDS011;6735;51.456;12.626;2022-10-31T10:02:02;38.10;;;26.00;;
13331;SDS011;6735;51.456;12.626;2022-10-31T10:07:07;46.37;;;29.57;;
13331;SDS011;6735;51.456;12.626;2022-10-31T10:09:41;49.67;;;30.07;;
13331;SDS011;6735;51.456;12.626;2022-10-31T10:12:19;40.87;;;29.57;;
13331;SDS011;6735;51.456;12.626;2022-10-31T10:15:09;41.53;;;27.83;;
13331;SDS011;6735;51.456;12.626;2022-10-31T10:23:23;40.43;;;29.10;;
13331;SDS011;6735;51.456;12.626;2022-10-31T10:28:38;41.87;;;28.10;;
13331;SDS011;6735;51.456;12.626;2022-10-31T10:36:45;41.17;;;30.67;;
13331;SDS011;6735;51.456;12.626;2022-10-31T10:39:32;45.33;;;29.77;;
13331;SDS011;6735;51.456;12.626;2022-10-31T10:42:04;45.03;;;29.30;;
13331;SDS011;6735;51.456;12.626;2022-10-31T10:44:54;43.80;;;29.83;;
13331;SDS011;6735;51.456;12.626;2022-10-31T10:47:43;44.50;;;31.77;;
13331;SDS011;6735;51.456;12.626;2022-10-31T10:55:29;44.90;;;29.40;;
13331;SDS011;6735;51.456;12.626;2022-10-31T10:58:08;43.17;;;30.50;;
13331;SDS011;6735;51.456;12.626;2022-10-31T11:00:41;40.67;;;29.43;;
13331;SDS011;6735;51.456;12.626;2022-10-31T11:03:08;47.27;;;30.30;;
13331;SDS011;6735;51.456;12.626;2022-10-31T11:05:47;42.43;;;28.57;;
13331;SDS011;6735;51.456;12.626;2022-10-31T11:08:25;38.80;;;27.83;;
13331;SDS011;6735;51.456;12.626;2022-10-31T11:10:58;41.70;;;29.00;;
13331;SDS011;6735;51.456;12.626;2022-10-31T11:13:24;40.10;;;29.97;;
13331;SDS011;6735;51.456;12.626;2022-10-31T11:16:02;42.83;;;29.00;;
13331;SDS011;6735;51.456;12.626;2022-10-31T11:18:45;41.83;;;29.07;;
13331;SDS011;6735;51.456;12.626;2022-10-31T11:21:25;41.20;;;29.60;;
13331;SDS011;6735;51.456;12.626;2022-10-31T11:24:01;39.23;;;29.00;;
13331;SDS011;6735;51.456;12.626;2022-10-31T11:26:28;42.20;;;30.70;;
13331;SDS011;6735;51.456;12.626;2022-10-31T11:28:56;48.43;;;31.80;;
13331;SDS011;6735;51.456;12.626;2022-10-31T11:31:23;44.33;;;29.63;;
13331;SDS011;6735;51.456;12.626;2022-10-31T11:33:52;38.93;;;27.33;;
13331;SDS011;6735;51.456;12.626;2022-10-31T11:36:26;45.97;;;31.73;;
13331;SDS011;6735;51.456;12.626;2022-10-31T11:38:55;43.60;;;31.00;;
13331;SDS011;6735;51.456;12.626;2022-10-31T11:41:28;46.23;;;32.00;;
13331;SDS011;6735;51.456;12.626;2022-10-31T11:43:55;43.90;;;32.13;;
13331;SDS011;6735;51.456;12.626;2022-10-31T11:46:37;46.37;;;32.00;;
13331;SDS011;6735;51.456;12.626;2022-10-31T11:49:05;41.43;;;31.07;;
13331;SDS011;6735;51.456;12.626;2022-10-31T11:51:40;41.10;;;30.47;;
13331;SDS011;6735;51.456;12.626;2022-10-31T11:54:06;44.73;;;31.03;;
13331;SDS011;6735;51.456;12.626;2022-10-31T11:57:04;45.17;;;31.70;;
13331;SDS011;6735;51.456;12.626;2022-10-31T11:59:30;42.83;;;31.57;;
13331;SDS011;6735;51.456;12.626;2022-10-31T12:01:57;39.77;;;31.70;;
13331;SDS011;6735;51.456;12.626;2022-10-31T12:04:33;48.03;;;31.63;;
13331;SDS011;6735;51.456;12.626;2022-10-31T12:07:08;41.17;;;30.43;;
13331;SDS011;6735;51.456;12.626;2022-10-31T12:09:34;49.13;;;32.00;;
13331;SDS011;6735;51.456;12.626;2022-10-31T12:12:21;55.30;;;31.83;;
13331;SDS011;6735;51.456;12.626;2022-10-31T12:17:55;44.23;;;30.80;;
13331;SDS011;6735;51.456;12.626;2022-10-31T12:24:07;45.03;;;32.47;;
13331;SDS011;6735;51.456;12.626;2022-10-31T12:26:18;46.83;;;32.10;;
13331;SDS011;6735;51.456;12.626;2022-10-31T12:31:55;47.50;;;33.83;;
13331;SDS011;6735;51.456;12.626;2022-10-31T12:37:24;45.03;;;32.23;;
13331;SDS011;6735;51.456;12.626;2022-10-31T12:40:17;51.73;;;32.93;;
13331;SDS011;6735;51.456;12.626;2022-10-31T12:43:08;44.13;;;31.97;;
13331;SDS011;6735;51.456;12.626;2022-10-31T12:45:54;39.97;;;31.33;;
13331;SDS011;6735;51.456;12.626;2022-10-31T12:51:29;42.13;;;33.47;;
13331;SDS011;6735;51.456;12.626;2022-10-31T12:54:09;44.67;;;31.50;;
13331;SDS011;6735;51.456;12.626;2022-10-31T12:56:42;44.63;;;32.13;;
13331;SDS011;6735;51.456;12.626;2022-10-31T12:59:20;43.83;;;31.63;;
13331;SDS011;6735;51.456;12.626;2022-10-31T13:01:55;43.67;;;31.03;;
13331;SDS011;6735;51.456;12.626;2022-10-31T13:04:49;42.70;;;31.70;;
13331;SDS011;6735;51.456;12.626;2022-10-31T13:07:23;46.03;;;34.07;;
13331;SDS011;6735;51.456;12.626;2022-10-31T13:09:58;41.53;;;33.37;;
13331;SDS011;6735;51.456;12.626;2022-10-31T13:12:32;46.83;;;33.20;;
13331;SDS011;6735;51.456;12.626;2022-10-31T13:15:01;45.17;;;33.43;;
13331;SDS011;6735;51.456;12.626;2022-10-31T13:17:43;45.30;;;31.90;;
13331;SDS011;6735;51.456;12.626;2022-10-31T13:20:19;45.43;;;31.33;;
13331;SDS011;6735;51.456;12.626;2022-10-31T13:23:05;41.67;;;31.80;;
13331;SDS011;6735;51.456;12.626;2022-10-31T13:25:44;44.17;;;31.73;;
13331;SDS011;6735;51.456;12.626;2022-10-31T13:28:23;42.97;;;32.17;;
13331;SDS011;6735;51.456;12.626;2022-10-31T13:30:59;43.53;;;32.07;;
13331;SDS011;6735;51.456;12.626;2022-10-31T13:33:29;43.53;;;31.47;;
13331;SDS011;6735;51.456;12.626;2022-10-31T13:36:06;44.93;;;30.73;;
13331;SDS011;6735;51.456;12.626;2022-10-31T13:38:51;39.67;;;29.43;;
13331;SDS011;6735;51.456;12.626;2022-10-31T13:44:01;38.40;;;30.20;;
13331;SDS011;6735;51.456;12.626;2022-10-31T13:48:58;43.93;;;29.73;;
13331;SDS011;6735;51.456;12.626;2022-10-31T13:51:25;41.87;;;30.20;;
13331;SDS011;6735;51.456;12.626;2022-10-31T14:01:48;44.30;;;31.27;;
13331;SDS011;6735;51.456;12.626;2022-10-31T14:07:10;40.80;;;30.80;;
13331;SDS011;6735;51.456;12.626;2022-10-31T14:09:49;41.30;;;30.63;;
13331;SDS011;6735;51.456;12.626;2022-10-31T14:15:16;43.30;;;29.33;;
13331;SDS011;6735;51.456;12.626;2022-10-31T14:22:42;43.37;;;30.87;;
13331;SDS011;6735;51.456;12.626;2022-10-31T14:27:54;41.67;;;30.60;;
13331;SDS011;6735;51.456;12.626;2022-10-31T14:30:22;42.63;;;30.53;;
13331;SDS011;6735;51.456;12.626;2022-10-31T14:32:53;44.77;;;30.57;;
13331;SDS011;6735;51.456;12.626;2022-10-31T14:35:23;41.90;;;30.13;;
13331;SDS011;6735;51.456;12.626;2022-10-31T14:37:59;40.37;;;29.80;;
13331;SDS011;6735;51.456;12.626;2022-10-31T14:41:11;45.63;;;31.33;;
13331;SDS011;6735;51.456;12.626;2022-10-31T14:49:33;45.67;;;31.00;;
13331;SDS011;6735;51.456;12.626;2022-10-31T14:52:11;46.40;;;31.17;;
13331;SDS011;6735;51.456;12.626;2022-10-31T14:54:43;52.10;;;36.10;;
13331;SDS011;6735;51.456;12.626;2022-10-31T14:57:17;45.17;;;31.13;;
13331;SDS011;6735;51.456;12.626;2022-10-31T14:59:55;44.17;;;32.00;;
13331;SDS011;6735;51.456;12.626;2022-10-31T15:02:43;47.87;;;33.33;;
13331;SDS011;6735;51.456;12.626;2022-10-31T15:05:19;50.87;;;33.90;;
13331;SDS011;6735;51.456;12.626;2022-10-31T15:07:55;46.73;;;33.70;;
13331;SDS011;6735;51.456;12.626;2022-10-31T15:10:24;45.43;;;32.63;;
13331;SDS011;6735;51.456;12.626;2022-10-31T15:12:52;42.20;;;30.37;;
13331;SDS011;6735;51.456;12.626;2022-10-31T15:15:21;47.70;;;34.00;;
13331;SDS011;6735;51.456;12.626;2022-10-31T15:17:51;45.87;;;35.20;;
13331;SDS011;6735;51.456;12.626;2022-10-31T15:20:22;33.80;;;25.83;;
13331;SDS011;6735;51.456;12.626;2022-10-31T15:22:51;53.97;;;36.83;;
13331;SDS011;6735;51.456;12.626;2022-10-31T15:25:19;50.40;;;37.30;;
13331;SDS011;6735;51.456;12.626;2022-10-31T15:27:49;51.03;;;36.57;;
13331;SDS011;6735;51.456;12.626;2022-10-31T15:30:19;49.27;;;35.70;;
13331;SDS011;6735;51.456;12.626;2022-10-31T15:32:49;50.00;;;34.60;;
13331;SDS011;6735;51.456;12.626;2022-10-31T15:35:20;52.83;;;36.80;;
13331;SDS011;6735;51.456;12.626;2022-10-31T15:37:53;52.90;;;37.30;;
13331;SDS011;6735;51.456;12.626;2022-10-31T15:40:21;58.57;;;36.93;;
13331;SDS011;6735;51.456;12.626;2022-10-31T15:42:53;52.63;;;36.47;;
13331;SDS011;6735;51.456;12.626;2022-10-31T15:45:30;52.97;;;35.97;;
13331;SDS011;6735;51.456;12.626;2022-10-31T15:47:56;52.03;;;37.83;;
13331;SDS011;6735;51.456;12.626;2022-10-31T15:50:30;54.93;;;35.97;;
13331;SDS011;6735;51.456;12.626;2022-10-31T15:52:59;61.00;;;42.67;;
13331;SDS011;6735;51.456;12.626;2022-10-31T15:55:26;58.33;;;40.57;;
13331;SDS011;6735;51.456;12.626;2022-10-31T15:57:58;58.57;;;41.73;;
13331;SDS011;6735;51.456;12.626;2022-10-31T16:00:31;59.43;;;40.30;;
13331;SDS011;6735;51.456;12.626;2022-10-31T16:03:40;57.43;;;37.60;;
13331;SDS011;6735;51.456;12.626;2022-10-31T16:05:52;58.13;;;39.07;;
13331;SDS011;6735;51.456;12.626;2022-10-31T16:10:55;61.10;;;43.27;;
13331;SDS011;6735;51.456;12.626;2022-10-31T16:13:29;66.00;;;48.05;;
13331;SDS011;6735;51.456;12.626;2022-10-31T16:15:59;61.67;;;46.00;;
13331;SDS011;6735;51.456;12.626;2022-10-31T16:18:26;85.23;;;58.30;;
13331;SDS011;6735;51.456;12.626;2022-10-31T16:20:54;67.83;;;47.87;;
13331;SDS011;6735;51.456;12.626;2022-10-31T16:23:22;68.53;;;48.95;;
13331;SDS011;6735;51.456;12.626;2022-10-31T16:25:49;58.47;;;43.47;;
13331;SDS011;6735;51.456;12.626;2022-10-31T16:28:21;62.03;;;44.33;;
13331;SDS011;6735;51.456;12.626;2022-10-31T16:30:49;57.97;;;43.03;;
13331;SDS011;6735;51.456;12.626;2022-10-31T16:33:29;54.87;;;39.90;;
13331;SDS011;6735;51.456;12.626;2022-10-31T16:35:58;53.50;;;39.47;;
13331;SDS011;6735;51.456;12.626;2022-10-31T16:38:25;53.07;;;40.20;;